Time;durP1;ratioP1;P1;durP2;ratioP2;P2;SDS_P1;SDS_P2;PMS_P1;PMS_P2;Temp;Humidity;BMP_temperature;BMP_pressure;BME280_temperature;BME280_humidity;BME280_pressure;Samples;Min_cycle;Max_cycle;Signal;HPM_P1;HPM_P2
2021/11/30 00:00:46;;;;;;;10.25;6.90;;;;;;;3.66;86.31;99357.88;5032792;28;20201;-71
2021/11/30 00:03:13;;;;;;;8.75;7.18;;;;;;;3.65;86.56;99352.59;5032319;28;20297;-71
2021/11/30 00:05:39;;;;;;;11.20;6.38;;;;;;;3.72;86.00;99355.00;5032332;28;20667;-72
2021/11/30 00:08:06;;;;;;;10.93;7.78;;;;;;;3.78;86.01;99361.94;5032316;28;20273;-71
2021/11/30 00:10:46;;;;;;;9.50;7.00;;;;;;;3.82;85.69;99366.22;5032200;28;20191;-73
2021/11/30 00:13:14;;;;;;;11.40;7.40;;;;;;;3.80;85.96;99359.19;5032188;28;20186;-72
2021/11/30 00:15:41;;;;;;;11.35;9.27;;;;;;;3.73;86.00;99353.19;5032204;28;20699;-72
2021/11/30 00:18:09;;;;;;;10.10;7.20;;;;;;;3.72;86.16;99362.13;5031982;28;20284;-71
2021/11/30 00:20:36;;;;;;;12.18;7.38;;;;;;;3.62;86.66;99371.34;5032687;28;20204;-72
2021/11/30 00:23:03;;;;;;;9.57;7.32;;;;;;;3.65;87.18;99373.91;5032249;28;20336;-71
2021/11/30 00:25:30;;;;;;;13.18;6.88;;;;;;;3.62;86.66;99379.31;5032010;28;20287;-71
2021/11/30 00:27:58;;;;;;;8.35;6.68;;;;;;;3.63;86.67;99387.25;5031873;28;20221;-71
2021/11/30 00:30:25;;;;;;;9.98;6.95;;;;;;;3.59;86.97;99379.44;5032112;28;20285;-71
2021/11/30 00:32:54;;;;;;;7.72;6.22;;;;;;;3.64;86.74;99375.72;5031908;28;20265;-71
2021/11/30 00:35:22;;;;;;;11.85;7.05;;;;;;;3.69;86.43;99367.56;5032143;28;20550;-73
2021/11/30 00:37:48;;;;;;;12.02;7.47;;;;;;;3.66;86.74;99373.84;5031564;28;20846;-72
2021/11/30 00:40:15;;;;;;;11.23;7.22;;;;;;;3.74;86.35;99360.28;5032041;28;20221;-72
2021/11/30 00:42:42;;;;;;;10.30;6.53;;;;;;;3.64;85.71;99366.81;5031781;28;20249;-70
2021/11/30 00:45:14;;;;;;;11.10;7.50;;;;;;;3.54;86.44;99372.47;5032624;28;20195;-70
2021/11/30 00:47:46;;;;;;;9.20;7.03;;;;;;;3.64;86.76;99375.72;5031676;28;20198;-71
2021/11/30 00:50:14;;;;;;;10.35;7.38;;;;;;;3.67;86.27;99372.94;5026245;28;20517;-72
2021/11/30 00:52:40;;;;;;;8.85;7.45;;;;;;;3.65;86.62;99358.78;5031516;28;20191;-71
2021/11/30 00:55:08;;;;;;;9.57;7.38;;;;;;;3.69;86.57;99365.78;5032084;28;20230;-70
2021/11/30 00:57:39;;;;;;;9.10;7.35;;;;;;;3.70;86.48;99355.97;5032074;28;20270;-72
2021/11/30 01:00:11;;;;;;;14.05;7.78;;;;;;;3.72;86.67;99365.66;5025606;28;20190;-72
2021/11/30 01:02:38;;;;;;;10.60;7.22;;;;;;;3.74;86.76;99368.28;5031251;28;20243;-71
2021/11/30 01:05:06;;;;;;;11.70;7.68;;;;;;;3.82;86.09;99368.91;5032031;28;20285;-71
2021/11/30 01:07:35;;;;;;;10.30;7.70;;;;;;;3.78;86.12;99363.69;5031722;28;20226;-72
2021/11/30 01:10:04;;;;;;;10.20;7.53;;;;;;;3.76;85.72;99364.63;5026474;28;20187;-72
2021/11/30 01:12:30;;;;;;;10.10;7.70;;;;;;;3.86;85.58;99359.84;5035567;28;20639;-71
2021/11/30 01:14:57;;;;;;;13.00;7.20;;;;;;;3.75;86.20;99364.66;5035982;28;20613;-72
2021/11/30 01:17:26;;;;;;;14.82;7.10;;;;;;;3.80;85.98;99364.50;5035246;28;20592;-71
2021/11/30 01:19:52;;;;;;;9.23;7.20;;;;;;;3.80;86.35;99354.75;5035303;28;20221;-72
2021/11/30 01:22:19;;;;;;;19.50;8.50;;;;;;;3.78;86.67;99355.72;5035009;28;20236;-73
2021/11/30 01:24:46;;;;;;;8.60;7.63;;;;;;;3.79;86.73;99361.00;5035293;28;20283;-72
2021/11/30 01:27:13;;;;;;;9.32;7.65;;;;;;;3.99;86.12;99364.78;5035265;28;20198;-72
2021/11/30 01:29:39;;;;;;;12.88;8.45;;;;;;;3.83;86.83;99367.09;5034729;28;20616;-72
2021/11/30 01:32:07;;;;;;;14.00;8.02;;;;;;;3.76;87.11;99361.09;5035436;28;20653;-72
2021/11/30 01:34:35;;;;;;;9.38;7.63;;;;;;;3.83;87.41;99351.97;5034996;28;20223;-72
2021/11/30 01:37:02;;;;;;;10.82;8.40;;;;;;;3.90;86.70;99352.63;5035390;28;20278;-72
2021/11/30 01:39:29;;;;;;;12.27;9.23;;;;;;;3.86;87.26;99359.84;5034401;28;20300;-72
2021/11/30 01:41:57;;;;;;;12.32;8.07;;;;;;;4.06;86.29;99352.97;5035119;28;20265;-72
2021/11/30 01:44:32;;;;;;;12.02;8.57;;;;;;;4.08;85.59;99362.63;5034568;28;20213;-72
2021/11/30 01:47:10;;;;;;;10.77;8.32;;;;;;;4.16;85.10;99370.34;5034978;28;20243;-72
2021/11/30 01:49:38;;;;;;;12.75;8.63;;;;;;;4.21;84.82;99367.56;5034506;28;20248;-73
2021/11/30 01:52:06;;;;;;;13.48;8.30;;;;;;;4.13;85.27;99363.34;5034659;28;20282;-71
2021/11/30 01:54:33;;;;;;;11.93;9.52;;;;;;;4.08;86.02;99373.28;5034629;28;20648;-73
2021/11/30 01:57:00;;;;;;;15.82;9.90;;;;;;;4.19;85.57;99367.59;5035071;28;20214;-71
2021/11/30 01:59:27;;;;;;;11.23;10.00;;;;;;;4.05;85.66;99365.44;5034487;28;20281;-71
2021/11/30 02:01:53;;;;;;;10.95;8.55;;;;;;;4.00;86.36;99370.03;5031137;28;20226;-73
2021/11/30 02:04:20;;;;;;;15.05;10.05;;;;;;;3.93;87.02;99368.50;5034434;28;20294;-71
2021/11/30 02:06:48;;;;;;;11.90;9.00;;;;;;;4.00;87.10;99359.38;5034740;28;20226;-73
2021/11/30 02:09:15;;;;;;;13.30;9.90;;;;;;;3.97;86.81;99360.34;5034064;28;20313;-72
2021/11/30 02:11:43;;;;;;;12.65;8.85;;;;;;;4.17;86.11;99367.63;5027051;28;20839;-72
2021/11/30 02:14:10;;;;;;;12.00;8.80;;;;;;;4.21;85.49;99365.75;5034587;28;20195;-73
2021/11/30 02:16:37;;;;;;;13.65;10.20;;;;;;;4.15;85.62;99361.50;5033766;28;20198;-72
2021/11/30 02:19:04;;;;;;;18.10;10.20;;;;;;;4.18;85.45;99357.84;5034612;28;20289;-72
2021/11/30 02:21:37;;;;;;;12.63;9.88;;;;;;;4.06;86.26;99358.28;5033691;28;20230;-72
2021/11/30 02:24:05;;;;;;;12.57;9.98;;;;;;;4.24;85.67;99336.31;5033310;28;20209;-72
2021/11/30 02:26:34;;;;;;;16.48;10.38;;;;;;;4.27;85.08;99341.53;5034049;28;20276;-72
2021/11/30 02:29:02;;;;;;;15.02;10.98;;;;;;;4.23;85.69;99339.03;5029408;28;20199;-72
2021/11/30 02:31:32;;;;;;;16.17;10.63;;;;;;;4.31;84.95;99337.81;5033818;28;20278;-73
2021/11/30 02:33:59;;;;;;;13.75;11.10;;;;;;;4.43;84.77;99346.28;5033780;28;20191;-72
2021/11/30 02:36:32;;;;;;;12.73;9.32;;;;;;;4.46;83.96;99344.41;5034090;28;20616;-72
2021/11/30 02:39:01;;;;;;;13.68;9.50;;;;;;;4.28;84.87;99337.09;5034263;28;20194;-72
2021/11/30 02:41:28;;;;;;;18.02;10.02;;;;;;;4.28;84.76;99329.09;5033809;28;20274;-72
2021/11/30 02:43:56;;;;;;;10.82;8.95;;;;;;;4.34;84.65;99332.41;5034216;28;20334;-72
2021/11/30 02:46:31;;;;;;;16.58;10.38;;;;;;;4.25;85.02;99334.50;5033872;28;20237;-72
2021/11/30 02:48:58;;;;;;;14.63;10.30;;;;;;;4.17;85.31;99337.47;5033545;28;20236;-71
2021/11/30 02:51:25;;;;;;;14.00;9.05;;;;;;;4.16;85.19;99338.38;5033896;28;20281;-72
2021/11/30 02:53:53;;;;;;;12.57;10.13;;;;;;;4.18;85.60;99329.44;5033715;28;20198;-72
2021/11/30 02:56:22;;;;;;;13.63;10.02;;;;;;;4.18;85.37;99329.44;5033300;28;20599;-72
2021/11/30 02:58:48;;;;;;;10.40;8.70;;;;;;;4.21;85.69;99344.44;5033315;28;20281;-72
2021/11/30 03:01:15;;;;;;;11.35;9.32;;;;;;;4.03;86.41;99347.75;5033622;28;20221;-72
2021/11/30 03:03:42;;;;;;;15.77;11.00;;;;;;;4.06;86.49;99352.97;5033307;28;20203;-72
2021/11/30 03:06:09;;;;;;;16.90;11.38;;;;;;;4.01;86.72;99355.78;5033445;28;20286;-72
2021/11/30 03:08:38;;;;;;;14.63;10.02;;;;;;;4.09;86.70;99345.75;5032845;28;20250;-72
2021/11/30 03:11:07;;;;;;;14.85;10.70;;;;;;;4.15;86.11;99342.84;5033256;28;20528;-72
2021/11/30 03:13:35;;;;;;;15.77;9.90;;;;;;;4.14;86.03;99327.78;5027132;28;20226;-73
2021/11/30 03:16:02;;;;;;;17.23;10.82;;;;;;;4.22;85.92;99327.50;5033133;28;20594;-72
2021/11/30 03:18:29;;;;;;;16.40;10.63;;;;;;;4.20;85.67;99320.50;5033430;28;20285;-72
2021/11/30 03:20:56;;;;;;;15.40;9.85;;;;;;;4.20;85.75;99326.69;5030745;28;20277;-72
2021/11/30 03:23:23;;;;;;;14.55;9.38;;;;;;;4.10;85.76;99323.50;5033349;28;20611;-72
2021/11/30 03:25:49;;;;;;;12.18;9.80;;;;;;;4.14;85.54;99317.13;5033474;28;20222;-72
2021/11/30 03:28:16;;;;;;;12.27;10.20;;;;;;;4.25;85.90;99313.19;5032346;28;20601;-72
2021/11/30 03:30:54;;;;;;;18.33;9.68;;;;;;;4.07;86.07;99307.63;5033156;28;20590;-72
2021/11/30 03:36:05;;;;;;;12.55;9.90;;;;;;;4.12;86.88;99302.13;5031782;28;20652;-72
2021/11/30 03:38:32;;;;;;;13.18;9.45;;;;;;;4.33;86.64;99292.47;5032937;28;20309;-72
2021/11/30 03:40:59;;;;;;;16.15;10.40;;;;;;;4.10;86.05;99295.97;5032496;28;20579;-72
2021/11/30 03:43:25;;;;;;;14.23;10.20;;;;;;;4.07;86.66;99301.41;5032856;28;20256;-72
2021/11/30 03:45:53;;;;;;;13.00;9.63;;;;;;;4.21;86.45;99295.59;5032547;28;20234;-71
2021/11/30 03:48:20;;;;;;;13.88;10.75;;;;;;;4.06;86.81;99297.88;5032434;28;20292;-70
2021/11/30 03:50:47;;;;;;;13.88;10.30;;;;;;;4.04;86.95;99306.84;5032312;28;20197;-71
2021/11/30 03:53:14;;;;;;;18.05;10.65;;;;;;;4.19;87.02;99300.97;5025327;28;20202;-73
2021/11/30 03:55:41;;;;;;;12.95;10.95;;;;;;;4.17;86.38;99297.50;5032512;28;20268;-71
2021/11/30 03:58:08;;;;;;;13.25;9.90;;;;;;;4.27;86.10;99290.88;5032477;28;20234;-73
2021/11/30 04:00:34;;;;;;;13.30;9.48;;;;;;;4.07;86.40;99294.31;5032262;28;20306;-72
2021/11/30 04:03:03;;;;;;;11.32;9.02;;;;;;;4.01;87.83;99281.19;5032473;28;20301;-72
2021/11/30 04:05:29;;;;;;;14.93;9.70;;;;;;;3.95;87.21;99282.28;5031872;28;20252;-72
2021/11/30 04:07:56;;;;;;;16.23;10.57;;;;;;;3.93;88.36;99275.25;5031890;28;20655;-72
2021/11/30 04:10:23;;;;;;;15.95;10.55;;;;;;;3.99;88.90;99274.19;5032380;28;20282;-72
2021/11/30 04:12:50;;;;;;;11.75;9.70;;;;;;;3.99;88.20;99263.53;5032399;28;20282;-72
2021/11/30 04:15:17;;;;;;;14.13;9.70;;;;;;;3.83;89.84;99271.22;5032601;28;20229;-73
2021/11/30 04:17:44;;;;;;;10.52;9.38;;;;;;;3.92;89.23;99269.06;5031844;28;20202;-72
2021/11/30 04:20:12;;;;;;;15.20;9.45;;;;;;;3.95;89.79;99252.97;5032193;28;20305;-72
2021/11/30 04:22:40;;;;;;;15.10;10.13;;;;;;;4.01;89.47;99261.69;5032035;28;20230;-72
2021/11/30 04:25:09;;;;;;;11.00;9.27;;;;;;;3.96;88.90;99246.72;5032240;28;20286;-73
2021/11/30 04:27:36;;;;;;;12.60;9.35;;;;;;;4.05;89.09;99255.28;5032045;28;20681;-72
2021/11/30 04:30:03;;;;;;;12.57;9.23;;;;;;;3.88;88.55;99246.13;5025197;28;20696;-72
2021/11/30 04:32:30;;;;;;;14.00;9.25;;;;;;;3.84;89.48;99252.50;5028354;28;20280;-73
2021/11/30 04:34:57;;;;;;;12.88;8.05;;;;;;;3.83;89.49;99239.25;5031671;28;20280;-72
2021/11/30 04:37:25;;;;;;;11.77;8.43;;;;;;;3.97;89.42;99244.94;5031003;28;20289;-73
2021/11/30 04:39:52;;;;;;;13.43;8.45;;;;;;;3.88;89.14;99238.16;5031534;28;20226;-72
2021/11/30 04:42:20;;;;;;;12.85;8.85;;;;;;;3.86;89.61;99234.66;5032272;28;20226;-72
2021/11/30 04:44:52;;;;;;;11.70;8.10;;;;;;;3.88;89.99;99242.59;5034598;28;20688;-72
2021/11/30 04:47:19;;;;;;;12.32;8.35;;;;;;;3.82;90.73;99224.19;5035725;28;20281;-72
2021/11/30 04:49:54;;;;;;;9.93;7.43;;;;;;;3.78;91.02;99225.22;5035699;28;20253;-72
2021/11/30 04:52:21;;;;;;;11.93;7.90;;;;;;;3.75;92.84;99220.88;5035854;28;20709;-72
2021/11/30 04:54:49;;;;;;;9.02;7.22;;;;;;;3.78;92.83;99225.22;5035747;28;20336;-72
2021/11/30 04:57:16;;;;;;;13.77;8.90;;;;;;;3.68;94.60;99225.53;5035892;28;20718;-72
2021/11/30 04:59:42;;;;;;;11.43;8.45;;;;;;;3.73;96.07;99218.28;5035035;28;20663;-72
2021/11/30 05:02:10;;;;;;;11.57;8.02;;;;;;;3.68;95.15;99220.22;5035893;28;20547;-72
2021/11/30 05:04:38;;;;;;;11.77;8.27;;;;;;;3.70;95.50;99220.19;5035183;28;20306;-73
2021/11/30 05:07:05;;;;;;;13.40;7.38;;;;;;;3.62;96.26;99224.91;5035350;28;20205;-72
2021/11/30 05:09:32;;;;;;;9.35;6.80;;;;;;;3.57;96.27;99229.53;5035106;28;20230;-72
2021/11/30 05:12:00;;;;;;;16.20;8.68;;;;;;;3.49;97.26;99229.81;5035300;28;20228;-73
2021/11/30 05:14:27;;;;;;;10.48;7.85;;;;;;;3.62;97.50;99230.22;5035301;28;20275;-73
2021/11/30 05:16:54;;;;;;;11.48;8.90;;;;;;;3.45;97.10;99221.03;5035073;28;20272;-72
2021/11/30 05:19:20;;;;;;;10.70;8.00;;;;;;;3.58;98.19;99216.16;5035003;28;20246;-73
2021/11/30 05:21:47;;;;;;;14.15;7.57;;;;;;;3.52;97.72;99211.91;5027612;28;20218;-72
2021/11/30 05:24:15;;;;;;;12.63;7.10;;;;;;;3.67;96.68;99217.63;5035428;28;20648;-73
2021/11/30 05:26:42;;;;;;;11.93;7.53;;;;;;;3.47;96.98;99224.53;5035368;28;20233;-73
2021/11/30 05:29:10;;;;;;;11.45;8.05;;;;;;;3.40;97.18;99207.03;5034574;28;20597;-73
2021/11/30 05:31:37;;;;;;;13.27;6.78;;;;;;;3.42;97.03;99212.31;5034838;28;20217;-73
2021/11/30 05:34:04;;;;;;;11.40;7.45;;;;;;;3.26;99.52;99214.66;5034689;28;20230;-72
2021/11/30 05:36:32;;;;;;;10.35;6.88;;;;;;;3.52;99.49;99198.59;5034665;28;20193;-72
2021/11/30 05:38:59;;;;;;;10.15;6.68;;;;;;;3.39;97.30;99201.75;5034804;28;20192;-72
2021/11/30 05:41:26;;;;;;;9.70;6.85;;;;;;;3.45;98.02;99213.06;5034660;28;20284;-73
2021/11/30 05:43:53;;;;;;;8.70;5.80;;;;;;;3.42;94.98;99193.69;5034644;28;20610;-72
2021/11/30 05:46:22;;;;;;;8.43;5.85;;;;;;;3.53;94.77;99192.38;5034440;28;20656;-72
2021/11/30 05:48:48;;;;;;;8.70;5.40;;;;;;;3.45;93.81;99198.88;5035016;28;20189;-72
2021/11/30 05:51:15;;;;;;;11.27;5.43;;;;;;;3.41;94.49;99194.59;5034611;28;20657;-73
2021/11/30 05:53:42;;;;;;;8.43;5.43;;;;;;;3.42;94.76;99191.88;5034400;28;20227;-71
2021/11/30 05:56:09;;;;;;;5.80;4.85;;;;;;;3.46;95.10;99203.28;5032970;28;20291;-74
2021/11/30 05:58:38;;;;;;;5.75;4.72;;;;;;;3.46;95.08;99182.88;5033973;28;20558;-71
2021/11/30 06:01:10;;;;;;;8.15;5.40;;;;;;;3.49;94.52;99181.88;5034932;28;20523;-71
2021/11/30 06:04:01;;;;;;;7.35;5.60;;;;;;;3.53;94.34;99172.88;5024191;28;20663;-71
2021/11/30 06:06:30;;;;;;;6.38;4.90;;;;;;;3.47;94.29;99170.44;5034015;28;20283;-72
2021/11/30 06:08:57;;;;;;;8.55;5.75;;;;;;;3.51;93.98;99166.75;5034176;28;20308;-72
2021/11/30 06:11:24;;;;;;;10.88;5.18;;;;;;;3.46;93.89;99172.22;5033596;28;20300;-72
2021/11/30 06:13:51;;;;;;;7.70;5.55;;;;;;;3.49;95.17;99177.44;5033639;28;20277;-72
2021/11/30 06:16:18;;;;;;;8.20;6.20;;;;;;;3.47;95.96;99163.31;5034334;28;20232;-70
2021/11/30 06:18:47;;;;;;;7.68;5.03;;;;;;;3.49;96.36;99172.09;5034230;28;20218;-71
2021/11/30 06:21:15;;;;;;;7.40;5.53;;;;;;;3.38;98.59;99168.97;5034330;28;20652;-73
2021/11/30 06:23:42;;;;;;;8.18;5.72;;;;;;;3.43;99.30;99182.97;5034170;28;20193;-72
2021/11/30 06:26:10;;;;;;;7.00;5.40;;;;;;;3.34;100.00;99173.50;5033513;28;20229;-73
2021/11/30 06:28:38;;;;;;;10.43;5.93;;;;;;;3.39;100.00;99173.34;5033976;28;20532;-72
2021/11/30 06:31:07;;;;;;;9.48;8.30;;;;;;;3.45;100.00;99172.28;5033290;28;20527;-71
2021/11/30 06:33:35;;;;;;;9.63;7.00;;;;;;;3.62;100.00;99169.00;5033775;28;20205;-74
2021/11/30 06:36:04;;;;;;;8.00;6.72;;;;;;;3.50;100.00;99183.63;5033385;28;20248;-72
2021/11/30 06:38:32;;;;;;;8.05;6.55;;;;;;;3.30;100.00;99179.88;5033185;28;20186;-71
2021/11/30 06:40:58;;;;;;;10.65;6.60;;;;;;;3.41;100.00;99173.31;5033362;28;20292;-73
2021/11/30 06:43:25;;;;;;;6.18;5.55;;;;;;;3.21;100.00;99168.69;5033929;28;20189;-73
2021/11/30 06:45:52;;;;;;;11.07;7.40;;;;;;;3.34;100.00;99170.00;5033943;28;20204;-72
2021/11/30 06:48:20;;;;;;;9.88;5.70;;;;;;;3.14;100.00;99178.66;5033478;28;20229;-70
2021/11/30 06:50:47;;;;;;;11.32;6.35;;;;;;;3.08;100.00;99182.41;5033510;28;20262;-73
2021/11/30 06:53:15;;;;;;;6.80;5.95;;;;;;;3.09;100.00;99176.16;5033635;28;20335;-71
2021/11/30 06:55:42;;;;;;;7.95;5.93;;;;;;;3.18;100.00;99179.44;5032770;28;20186;-70
2021/11/30 06:58:08;;;;;;;8.55;6.10;;;;;;;3.34;100.00;99181.50;5033612;28;20323;-71
2021/11/30 07:00:35;;;;;;;11.55;6.45;;;;;;;3.31;100.00;99186.94;5033044;28;20251;-72
2021/11/30 07:03:02;;;;;;;8.77;6.30;;;;;;;3.50;100.00;99187.13;5032857;28;20245;-72
2021/11/30 07:05:31;;;;;;;6.85;5.95;;;;;;;3.42;100.00;99191.88;5033088;28;20631;-71
2021/11/30 07:08:12;;;;;;;7.28;5.85;;;;;;;3.17;100.00;99183.03;5032548;28;20601;-72
2021/11/30 07:10:44;;;;;;;6.53;5.68;;;;;;;3.12;100.00;99176.06;5033036;28;20588;-72
2021/11/30 07:13:18;;;;;;;9.77;7.10;;;;;;;3.30;100.00;99182.56;5032888;28;20285;-72
2021/11/30 07:15:46;;;;;;;8.23;6.43;;;;;;;3.36;100.00;99177.94;5032812;28;20666;-72
2021/11/30 07:18:15;;;;;;;5.65;5.00;;;;;;;3.33;100.00;99173.59;5032569;28;20288;-71
2021/11/30 07:20:43;;;;;;;6.22;5.45;;;;;;;3.30;100.00;99166.59;5033190;28;20554;-73
2021/11/30 07:23:10;;;;;;;8.55;6.40;;;;;;;3.35;100.00;99166.41;5032052;28;20202;-73
2021/11/30 07:25:37;;;;;;;7.03;5.90;;;;;;;3.30;100.00;99173.69;5032777;28;20749;-71
2021/11/30 07:28:06;;;;;;;7.53;5.65;;;;;;;3.17;100.00;99178.56;5032136;28;20204;-71
2021/11/30 07:30:33;;;;;;;7.60;5.65;;;;;;;3.21;100.00;99182.88;5032312;28;20213;-71
2021/11/30 07:33:00;;;;;;;5.50;5.00;;;;;;;3.25;100.00;99194.25;5032345;28;20206;-71
2021/11/30 07:35:27;;;;;;;5.90;4.63;;;;;;;3.36;100.00;99200.06;5032199;28;20651;-73
2021/11/30 07:37:54;;;;;;;7.45;5.22;;;;;;;3.18;100.00;99195.41;5031405;28;20198;-73
2021/11/30 07:40:22;;;;;;;6.95;5.32;;;;;;;3.19;100.00;99202.44;5031686;28;20193;-73
2021/11/30 07:42:49;;;;;;;5.97;5.30;;;;;;;3.07;100.00;99199.28;5028909;28;20657;-73
2021/11/30 07:45:17;;;;;;;10.20;5.72;;;;;;;3.22;100.00;99205.88;5029749;28;20297;-72
2021/11/30 07:47:44;;;;;;;6.07;5.05;;;;;;;3.16;100.00;99187.47;5027989;28;20623;-71
2021/11/30 07:50:12;;;;;;;6.88;5.35;;;;;;;3.18;100.00;99192.75;5032694;28;20299;-71
2021/11/30 07:52:41;;;;;;;6.95;5.50;;;;;;;3.24;100.00;99196.06;5031402;28;20285;-72
2021/11/30 07:55:09;;;;;;;7.45;5.43;;;;;;;3.24;100.00;99188.09;5033053;28;20264;-71
2021/11/30 07:57:36;;;;;;;7.45;6.05;;;;;;;3.36;100.00;99201.88;5032708;28;20201;-72
2021/11/30 08:00:04;;;;;;;8.48;5.75;;;;;;;3.44;100.00;99210.47;5027417;28;20243;-72
2021/11/30 08:02:32;;;;;;;6.55;5.22;;;;;;;3.21;100.00;99204.16;5021908;28;20194;-72
2021/11/30 08:04:59;;;;;;;7.53;5.18;;;;;;;3.13;100.00;99196.41;5032661;28;20304;-72
2021/11/30 08:07:26;;;;;;;6.05;5.45;;;;;;;3.27;100.00;99189.75;5029922;28;20712;-72
2021/11/30 08:09:52;;;;;;;7.32;5.38;;;;;;;3.42;100.00;99196.34;5032028;28;20197;-72
2021/11/30 08:12:19;;;;;;;6.88;5.63;;;;;;;3.31;100.00;99199.38;5023899;28;20378;-71
2021/11/30 08:14:46;;;;;;;6.43;5.65;;;;;;;3.58;100.00;99197.53;5027454;28;20221;-73
2021/11/30 08:17:14;;;;;;;6.68;5.72;;;;;;;3.64;100.00;99185.78;5025604;28;20626;-72
2021/11/30 08:19:43;;;;;;;7.13;5.60;;;;;;;3.51;100.00;99182.72;5032051;28;20198;-72
2021/11/30 08:22:11;;;;;;;6.40;5.32;;;;;;;3.62;100.00;99176.97;5032722;28;20228;-72
2021/11/30 08:24:38;;;;;;;6.82;6.07;;;;;;;3.55;100.00;99187.88;5031237;28;20292;-73
2021/11/30 08:27:06;;;;;;;8.18;6.28;;;;;;;3.54;100.00;99183.44;5012908;28;20218;-73
2021/11/30 08:29:35;;;;;;;5.30;4.80;;;;;;;3.55;100.00;99179.03;5012849;28;20242;-73
2021/11/30 08:32:02;;;;;;;5.35;4.78;;;;;;;3.57;100.00;99165.63;5012953;28;20210;-73
2021/11/30 08:34:29;;;;;;;5.25;4.45;;;;;;;3.42;100.00;99178.59;5012868;28;20222;-72
2021/11/30 08:36:57;;;;;;;6.25;5.10;;;;;;;3.28;100.00;99163.09;5022567;28;20222;-73
2021/11/30 08:39:24;;;;;;;4.18;3.78;;;;;;;3.37;100.00;99180.53;5031359;28;20237;-73
2021/11/30 08:41:51;;;;;;;4.40;4.00;;;;;;;3.45;100.00;99175.78;5032433;28;20197;-72
2021/11/30 08:44:17;;;;;;;5.85;4.40;;;;;;;3.36;100.00;99175.28;5032163;28;20225;-72
2021/11/30 08:46:44;;;;;;;8.13;5.32;;;;;;;3.61;100.00;99175.25;5031983;28;20396;-72
2021/11/30 08:49:11;;;;;;;5.80;4.18;;;;;;;3.51;100.00;99175.59;5031882;28;20282;-73
2021/11/30 08:51:37;;;;;;;8.02;4.95;;;;;;;3.55;100.00;99168.38;5031477;28;20221;-73
2021/11/30 08:54:05;;;;;;;4.82;4.40;;;;;;;3.62;100.00;99166.31;5032153;28;20354;-74
2021/11/30 08:56:32;;;;;;;4.70;4.20;;;;;;;3.75;100.00;99167.63;5032174;28;20332;-71
2021/11/30 08:58:59;;;;;;;5.65;4.45;;;;;;;3.76;100.00;99159.56;5031039;28;20217;-71
2021/11/30 09:01:25;;;;;;;8.50;5.30;;;;;;;3.74;100.00;99168.56;5012316;28;20235;-73
2021/11/30 09:03:52;;;;;;;4.35;3.95;;;;;;;3.63;100.00;99163.63;5012448;28;20230;-73
2021/11/30 09:06:20;;;;;;;4.65;4.22;;;;;;;3.84;100.00;99167.25;5012570;28;20748;-73
2021/11/30 09:08:47;;;;;;;5.88;3.85;;;;;;;3.75;100.00;99163.19;5029091;28;20291;-73
2021/11/30 09:11:16;;;;;;;5.32;3.85;;;;;;;3.73;100.00;99161.47;5031901;28;20229;-72
2021/11/30 09:13:43;;;;;;;6.68;3.70;;;;;;;3.66;100.00;99162.63;5031657;28;20205;-72
2021/11/30 09:16:10;;;;;;;4.97;4.20;;;;;;;3.70;100.00;99159.78;5031340;28;20240;-72
2021/11/30 09:18:36;;;;;;;7.07;4.85;;;;;;;3.72;100.00;99157.09;5023632;28;20193;-71
2021/11/30 09:21:03;;;;;;;5.18;4.40;;;;;;;3.80;100.00;99173.66;5012265;28;20187;-73
2021/11/30 09:23:30;;;;;;;5.55;4.70;;;;;;;4.05;100.00;99159.38;5030268;28;20229;-73
2021/11/30 09:25:57;;;;;;;4.57;3.88;;;;;;;4.10;100.00;99158.28;5031936;28;20304;-72
2021/11/30 09:28:25;;;;;;;5.38;4.50;;;;;;;4.20;100.00;99161.47;5031657;28;20293;-73
2021/11/30 09:30:52;;;;;;;5.32;4.75;;;;;;;3.95;100.00;99157.06;5033186;28;20295;-73
2021/11/30 09:33:19;;;;;;;5.93;3.90;;;;;;;4.07;100.00;99160.19;5035089;28;20532;-72
2021/11/30 09:35:45;;;;;;;5.65;5.00;;;;;;;3.97;100.00;99146.38;5035463;28;20269;-71
2021/11/30 09:38:12;;;;;;;5.00;4.60;;;;;;;4.03;100.00;99153.28;5035108;28;20281;-73
2021/11/30 09:40:41;;;;;;;4.88;4.35;;;;;;;3.98;100.00;99145.47;5035271;28;20686;-73
2021/11/30 09:43:08;;;;;;;6.03;5.10;;;;;;;4.05;100.00;99149.63;5035135;28;20190;-73
2021/11/30 09:45:39;;;;;;;5.53;5.00;;;;;;;4.11;100.00;99136.03;5034780;28;20272;-73
2021/11/30 09:48:10;;;;;;;5.00;4.50;;;;;;;4.27;100.00;99132.78;5035082;28;20183;-73
2021/11/30 09:50:38;;;;;;;6.15;4.70;;;;;;;4.30;100.00;99125.53;5034513;28;20187;-73
2021/11/30 09:53:05;;;;;;;5.55;4.93;;;;;;;4.22;100.00;99135.63;5035069;28;20288;-72
2021/11/30 09:55:32;;;;;;;5.50;4.40;;;;;;;4.13;100.00;99139.50;5034717;28;20272;-72
2021/11/30 09:57:58;;;;;;;5.90;4.95;;;;;;;4.03;100.00;99140.81;5034823;28;20266;-71
2021/11/30 10:00:28;;;;;;;4.72;4.05;;;;;;;3.99;100.00;99149.84;5035251;28;20183;-72
2021/11/30 10:02:59;;;;;;;4.65;4.25;;;;;;;4.17;100.00;99142.94;5034665;28;20260;-74
2021/11/30 10:05:26;;;;;;;6.25;4.90;;;;;;;4.20;100.00;99141.94;5034627;28;20210;-73
2021/11/30 10:07:54;;;;;;;5.05;4.10;;;;;;;3.95;100.00;99141.09;5034038;28;20280;-74
2021/11/30 10:10:23;;;;;;;4.65;3.92;;;;;;;3.87;100.00;99129.88;5034348;28;20233;-72
2021/11/30 10:13:09;;;;;;;4.63;4.00;;;;;;;4.04;100.00;99142.53;5034533;28;20269;-73
2021/11/30 10:15:51;;;;;;;4.20;3.80;;;;;;;3.87;100.00;99127.22;5034454;28;20190;-71
2021/11/30 10:18:22;;;;;;;4.43;3.90;;;;;;;4.03;100.00;99123.97;5034500;28;20240;-73
2021/11/30 10:20:52;;;;;;;4.38;3.63;;;;;;;4.11;100.00;99119.19;5034003;28;20192;-71
2021/11/30 10:23:22;;;;;;;4.65;3.70;;;;;;;4.07;100.00;99136.22;5033998;28;20209;-71
2021/11/30 10:25:50;;;;;;;6.15;4.88;;;;;;;3.98;100.00;99116.16;5034178;28;20206;-71
2021/11/30 10:28:20;;;;;;;4.70;4.10;;;;;;;3.87;100.00;99124.56;5033953;28;20296;-72
2021/11/30 10:30:50;;;;;;;5.32;3.55;;;;;;;3.93;100.00;99126.09;5034272;28;20284;-73
2021/11/30 10:33:20;;;;;;;4.78;4.07;;;;;;;3.99;100.00;99133.00;5034417;28;20193;-72
2021/11/30 10:35:52;;;;;;;4.07;3.67;;;;;;;4.11;100.00;99117.38;5034059;28;20194;-71
2021/11/30 10:38:19;;;;;;;3.50;3.20;;;;;;;3.97;100.00;99109.06;5034126;28;20624;-74
2021/11/30 10:40:46;;;;;;;3.58;3.25;;;;;;;4.11;100.00;99117.38;5033550;28;20187;-74
2021/11/30 10:43:13;;;;;;;3.38;3.08;;;;;;;3.99;100.00;99119.69;5034201;28;20228;-72
2021/11/30 10:45:43;;;;;;;3.28;2.97;;;;;;;4.03;100.00;99114.19;5033683;28;20244;-74
2021/11/30 10:48:13;;;;;;;4.68;3.63;;;;;;;3.91;100.00;99112.88;5033684;28;20199;-73
2021/11/30 10:50:44;;;;;;;3.30;3.00;;;;;;;4.00;100.00;99103.63;5033601;28;20186;-72
2021/11/30 10:53:16;;;;;;;4.30;3.55;;;;;;;3.94;100.00;99106.53;5033876;28;20209;-73
2021/11/30 10:55:46;;;;;;;3.38;3.08;;;;;;;4.01;100.00;99104.50;5033454;28;20232;-73
2021/11/30 10:58:12;;;;;;;5.07;3.35;;;;;;;3.99;100.00;99101.03;5034058;28;20546;-73
2021/11/30 11:00:39;;;;;;;4.03;3.20;;;;;;;4.03;100.00;99108.84;5033320;28;20252;-74
2021/11/30 11:03:09;;;;;;;2.45;2.25;;;;;;;3.88;100.00;99104.09;5033442;28;20183;-71
2021/11/30 11:05:38;;;;;;;2.63;2.42;;;;;;;3.81;100.00;99102.63;5033882;28;20217;-72
2021/11/30 11:08:10;;;;;;;3.60;2.85;;;;;;;3.90;100.00;99105.78;5033458;28;20710;-72
2021/11/30 11:10:38;;;;;;;3.60;3.30;;;;;;;3.90;100.00;99102.25;5033910;28;20190;-72
2021/11/30 11:13:22;;;;;;;3.58;3.28;;;;;;;4.00;100.00;99102.75;5033614;28;20206;-73
2021/11/30 11:15:50;;;;;;;2.95;2.65;;;;;;;3.90;100.00;99102.25;5032903;28;20247;-73
2021/11/30 11:18:26;;;;;;;3.35;3.00;;;;;;;3.92;100.00;99087.94;5033222;28;20660;-73
2021/11/30 11:21:09;;;;;;;3.60;3.30;;;;;;;3.79;100.00;99084.03;5033048;28;20225;-72
2021/11/30 11:23:42;;;;;;;3.58;3.28;;;;;;;3.93;100.00;99076.38;5033128;28;20218;-72
2021/11/30 11:26:24;;;;;;;3.85;3.22;;;;;;;3.87;100.00;99079.28;5033409;28;20213;-72
2021/11/30 11:28:52;;;;;;;6.60;3.90;;;;;;;3.88;100.00;99078.34;5032682;28;20555;-72
2021/11/30 11:31:21;;;;;;;3.53;3.22;;;;;;;3.92;100.00;99074.63;5032849;28;20274;-72
2021/11/30 11:33:48;;;;;;;5.38;3.45;;;;;;;4.02;100.00;99066.28;5033121;28;20619;-73
2021/11/30 11:36:16;;;;;;;3.97;3.58;;;;;;;4.02;100.00;99087.59;5033090;28;20241;-71
2021/11/30 11:38:44;;;;;;;4.40;3.95;;;;;;;4.06;100.00;99089.19;5033220;28;20668;-72
2021/11/30 11:41:11;;;;;;;5.35;4.82;;;;;;;4.08;100.00;99082.88;5033189;28;20561;-72